ウラジオストク の空港の天気 - METARとTAF

ウラジオストク空港 ( UHWW / VVO ) - ロシア ウラジオストク
飛行場実況気象(Metar)
観測時間11/17 02:30 VLAT (11/16 16:30 UTC)
風向・風速北西 2m/s
視程10km以上
天気現象
なし
気温-8℃
湿度79%
気圧1024hPa
METARUHWW 161630Z 31002MPS 9999 NSC M08/M11 Q1024 R25L/0///70 NOSIG RMK QFE767
過去の天気等 Google飛行場航空写真 Wunderground天気予報

過去48時間のMETAR

飛行場予報(TAF)
発表時間: 11/17 00:00 VLAT (11/16 14:00 UTC)
予報対象時間: 17日1時 VLAT ~ 18日1時 VLAT
風向・風速北 3m/s
視程10km以上
なし
17日10時 VLAT ~ 17日12時 VLAT に徐々に
風向・風速西南西 3m/s
全天の4割程度の雲 雲底高度 910m
TAF UHWW 161400Z 1615/1715 35003MPS 9999 NSC
BECMG 1700/1702 25003MPS SCT030